sensor_id;sensor_type;location;lat;lon;timestamp;pressure;altitude;pressure_sealevel;temperature;humidity
2675;BME280;1347;42.122;24.746;2023-02-04T00:02:23;99514.19;;;3.11;57.30
2675;BME280;1347;42.122;24.746;2023-02-04T00:04:50;99510.06;;;3.13;57.77
2675;BME280;1347;42.122;24.746;2023-02-04T00:07:17;99494.63;;;3.14;57.34
2675;BME280;1347;42.122;24.746;2023-02-04T00:09:44;99503.34;;;3.19;57.34
2675;BME280;1347;42.122;24.746;2023-02-04T00:12:13;99493.94;;;3.17;57.91
2675;BME280;1347;42.122;24.746;2023-02-04T00:14:40;99492.84;;;3.18;57.24
2675;BME280;1347;42.122;24.746;2023-02-04T00:17:07;99487.28;;;3.06;57.53
2675;BME280;1347;42.122;24.746;2023-02-04T00:19:35;99478.03;;;3.07;57.89
2675;BME280;1347;42.122;24.746;2023-02-04T00:22:03;99486.00;;;3.12;58.13
2675;BME280;1347;42.122;24.746;2023-02-04T00:24:31;99487.28;;;3.23;57.95
2675;BME280;1347;42.122;24.746;2023-02-04T00:26:58;99483.88;;;3.43;57.29
2675;BME280;1347;42.122;24.746;2023-02-04T00:29:26;99476.53;;;3.44;58.07
2675;BME280;1347;42.122;24.746;2023-02-04T00:31:53;99474.63;;;3.44;57.99
2675;BME280;1347;42.122;24.746;2023-02-04T00:34:20;99472.50;;;3.58;57.40
2675;BME280;1347;42.122;24.746;2023-02-04T00:36:47;99465.00;;;3.64;57.58
2675;BME280;1347;42.122;24.746;2023-02-04T00:39:14;99469.31;;;3.65;57.64
2675;BME280;1347;42.122;24.746;2023-02-04T00:41:41;99469.28;;;3.74;57.99
2675;BME280;1347;42.122;24.746;2023-02-04T00:44:07;99473.94;;;3.64;58.46
2675;BME280;1347;42.122;24.746;2023-02-04T00:46:36;99465.50;;;3.57;59.08
2675;BME280;1347;42.122;24.746;2023-02-04T00:49:02;99464.72;;;3.48;58.69
2675;BME280;1347;42.122;24.746;2023-02-04T00:51:31;99461.84;;;3.53;58.78
2675;BME280;1347;42.122;24.746;2023-02-04T00:53:57;99464.72;;;3.48;58.93
2675;BME280;1347;42.122;24.746;2023-02-04T00:56:24;99463.47;;;3.46;59.23
2675;BME280;1347;42.122;24.746;2023-02-04T00:58:51;99455.50;;;3.41;59.42
2675;BME280;1347;42.122;24.746;2023-02-04T01:01:18;99451.97;;;3.49;59.43
2675;BME280;1347;42.122;24.746;2023-02-04T01:03:46;99448.16;;;3.50;60.24
2675;BME280;1347;42.122;24.746;2023-02-04T01:06:13;99443.00;;;3.57;60.87
2675;BME280;1347;42.122;24.746;2023-02-04T01:08:40;99441.91;;;3.58;59.78
2675;BME280;1347;42.122;24.746;2023-02-04T01:11:07;99446.56;;;3.49;59.27
2675;BME280;1347;42.122;24.746;2023-02-04T01:13:34;99427.59;;;3.49;56.81
2675;BME280;1347;42.122;24.746;2023-02-04T01:16:01;99416.78;;;3.40;57.38
2675;BME280;1347;42.122;24.746;2023-02-04T01:18:27;99413.91;;;3.37;58.69
2675;BME280;1347;42.122;24.746;2023-02-04T01:20:56;99403.06;;;3.45;58.45
2675;BME280;1347;42.122;24.746;2023-02-04T01:23:23;99392.94;;;3.63;58.04
2675;BME280;1347;42.122;24.746;2023-02-04T01:25:49;99388.97;;;3.60;58.52
2675;BME280;1347;42.122;24.746;2023-02-04T01:28:16;99388.69;;;3.53;58.38
2675;BME280;1347;42.122;24.746;2023-02-04T01:30:43;99369.09;;;3.48;58.91
2675;BME280;1347;42.122;24.746;2023-02-04T01:33:10;99363.38;;;3.41;59.57
2675;BME280;1347;42.122;24.746;2023-02-04T01:35:37;99356.22;;;3.36;59.91
2675;BME280;1347;42.122;24.746;2023-02-04T01:38:05;99343.34;;;3.33;60.15
2675;BME280;1347;42.122;24.746;2023-02-04T01:40:32;99335.97;;;3.42;59.79
2675;BME280;1347;42.122;24.746;2023-02-04T01:42:59;99331.94;;;3.48;59.50
2675;BME280;1347;42.122;24.746;2023-02-04T01:45:26;99322.59;;;3.46;59.16
2675;BME280;1347;42.122;24.746;2023-02-04T01:47:55;99334.72;;;3.40;59.57
2675;BME280;1347;42.122;24.746;2023-02-04T01:50:22;99331.09;;;3.27;60.45
2675;BME280;1347;42.122;24.746;2023-02-04T01:52:49;99322.31;;;3.30;60.98
2675;BME280;1347;42.122;24.746;2023-02-04T01:55:19;99329.13;;;3.45;60.81
2675;BME280;1347;42.122;24.746;2023-02-04T01:57:48;99330.34;;;3.56;60.77
2675;BME280;1347;42.122;24.746;2023-02-04T02:00:21;99320.25;;;3.65;60.53
2675;BME280;1347;42.122;24.746;2023-02-04T02:02:51;99321.25;;;3.81;60.21
2675;BME280;1347;42.122;24.746;2023-02-04T02:05:20;99314.31;;;3.92;59.87
2675;BME280;1347;42.122;24.746;2023-02-04T02:07:48;99310.41;;;4.02;59.58
2675;BME280;1347;42.122;24.746;2023-02-04T02:10:18;99310.97;;;4.07;59.25
2675;BME280;1347;42.122;24.746;2023-02-04T02:12:45;99304.66;;;4.03;60.15
2675;BME280;1347;42.122;24.746;2023-02-04T02:15:13;99303.59;;;3.96;60.98
2675;BME280;1347;42.122;24.746;2023-02-04T02:17:40;99301.16;;;4.03;60.65
2675;BME280;1347;42.122;24.746;2023-02-04T02:20:10;99295.00;;;3.94;61.04
2675;BME280;1347;42.122;24.746;2023-02-04T02:22:41;99299.31;;;3.95;60.67
2675;BME280;1347;42.122;24.746;2023-02-04T02:25:13;99289.34;;;3.57;60.72
2675;BME280;1347;42.122;24.746;2023-02-04T02:27:40;99292.06;;;3.78;60.85
2675;BME280;1347;42.122;24.746;2023-02-04T02:30:09;99284.22;;;3.64;61.12
2675;BME280;1347;42.122;24.746;2023-02-04T02:32:37;99276.66;;;3.70;59.47
2675;BME280;1347;42.122;24.746;2023-02-04T02:35:05;99280.81;;;3.88;58.88
2675;BME280;1347;42.122;24.746;2023-02-04T02:37:32;99277.41;;;4.00;59.52
2675;BME280;1347;42.122;24.746;2023-02-04T02:39:59;99265.69;;;4.08;59.53
2675;BME280;1347;42.122;24.746;2023-02-04T02:42:28;99257.81;;;4.15;59.72
2675;BME280;1347;42.122;24.746;2023-02-04T02:44:56;99260.31;;;4.20;59.29
2675;BME280;1347;42.122;24.746;2023-02-04T02:47:25;99260.78;;;4.22;59.24
2675;BME280;1347;42.122;24.746;2023-02-04T02:49:53;99243.94;;;4.29;58.89
2675;BME280;1347;42.122;24.746;2023-02-04T02:52:20;99255.41;;;4.34;59.00
2675;BME280;1347;42.122;24.746;2023-02-04T02:54:48;99246.03;;;4.44;58.58
2675;BME280;1347;42.122;24.746;2023-02-04T02:57:17;99244.22;;;4.48;58.29
2675;BME280;1347;42.122;24.746;2023-02-04T02:59:46;99238.78;;;4.48;58.49
2675;BME280;1347;42.122;24.746;2023-02-04T03:02:15;99232.59;;;4.48;58.93
2675;BME280;1347;42.122;24.746;2023-02-04T03:04:45;99219.59;;;4.53;58.75
2675;BME280;1347;42.122;24.746;2023-02-04T03:07:16;99217.31;;;4.43;57.59
2675;BME280;1347;42.122;24.746;2023-02-04T03:09:44;99216.19;;;4.44;58.56
2675;BME280;1347;42.122;24.746;2023-02-04T03:12:11;99207.09;;;4.28;59.16
2675;BME280;1347;42.122;24.746;2023-02-04T03:14:38;99215.41;;;4.11;59.54
2675;BME280;1347;42.122;24.746;2023-02-04T03:17:08;99215.81;;;4.00;59.61
2675;BME280;1347;42.122;24.746;2023-02-04T03:19:36;99206.50;;;3.89;59.40
2675;BME280;1347;42.122;24.746;2023-02-04T03:22:05;99205.38;;;3.90;59.88
2675;BME280;1347;42.122;24.746;2023-02-04T03:24:32;99212.00;;;3.81;59.83
2675;BME280;1347;42.122;24.746;2023-02-04T03:27:00;99215.19;;;3.62;60.64
2675;BME280;1347;42.122;24.746;2023-02-04T03:29:27;99216.88;;;3.66;60.13
2675;BME280;1347;42.122;24.746;2023-02-04T03:31:53;99214.19;;;3.66;60.14
2675;BME280;1347;42.122;24.746;2023-02-04T03:34:22;99215.97;;;3.83;59.97
2675;BME280;1347;42.122;24.746;2023-02-04T03:36:49;99212.41;;;3.91;59.77
2675;BME280;1347;42.122;24.746;2023-02-04T03:39:16;99203.00;;;3.68;60.51
2675;BME280;1347;42.122;24.746;2023-02-04T03:41:43;99209.03;;;3.74;61.19
2675;BME280;1347;42.122;24.746;2023-02-04T03:44:10;99205.22;;;3.54;60.63
2675;BME280;1347;42.122;24.746;2023-02-04T03:46:36;99196.28;;;3.74;60.65
2675;BME280;1347;42.122;24.746;2023-02-04T03:49:03;99188.66;;;3.67;60.93
2675;BME280;1347;42.122;24.746;2023-02-04T03:51:32;99185.97;;;3.47;61.77
2675;BME280;1347;42.122;24.746;2023-02-04T03:53:58;99189.03;;;3.66;61.07
2675;BME280;1347;42.122;24.746;2023-02-04T03:56:25;99180.81;;;3.75;61.27
2675;BME280;1347;42.122;24.746;2023-02-04T03:58:52;99171.97;;;3.65;62.12
2675;BME280;1347;42.122;24.746;2023-02-04T04:01:19;99162.59;;;3.42;61.89
2675;BME280;1347;42.122;24.746;2023-02-04T04:03:46;99166.41;;;3.41;61.17
2675;BME280;1347;42.122;24.746;2023-02-04T04:06:13;99160.13;;;3.28;62.52
2675;BME280;1347;42.122;24.746;2023-02-04T04:08:41;99152.22;;;3.23;62.87
2675;BME280;1347;42.122;24.746;2023-02-04T04:11:08;99141.88;;;3.38;62.18
2675;BME280;1347;42.122;24.746;2023-02-04T04:13:35;99136.03;;;3.36;61.44
2675;BME280;1347;42.122;24.746;2023-02-04T04:16:02;99137.25;;;3.17;61.49
2675;BME280;1347;42.122;24.746;2023-02-04T04:18:29;99143.41;;;3.26;61.37
2675;BME280;1347;42.122;24.746;2023-02-04T04:20:57;99140.13;;;3.42;61.08
2675;BME280;1347;42.122;24.746;2023-02-04T04:23:24;99131.66;;;3.43;61.47
2675;BME280;1347;42.122;24.746;2023-02-04T04:25:52;99128.94;;;3.22;61.58
2675;BME280;1347;42.122;24.746;2023-02-04T04:28:19;99131.19;;;3.41;61.55
2675;BME280;1347;42.122;24.746;2023-02-04T04:30:46;99136.53;;;3.50;61.12
2675;BME280;1347;42.122;24.746;2023-02-04T04:33:13;99138.25;;;3.54;60.79
2675;BME280;1347;42.122;24.746;2023-02-04T04:35:40;99150.81;;;3.59;61.00
2675;BME280;1347;42.122;24.746;2023-02-04T04:38:07;99133.66;;;3.67;60.46
2675;BME280;1347;42.122;24.746;2023-02-04T04:40:33;99146.81;;;3.77;59.87
2675;BME280;1347;42.122;24.746;2023-02-04T04:43:02;99134.19;;;3.81;58.88
2675;BME280;1347;42.122;24.746;2023-02-04T04:45:28;99125.63;;;3.91;59.29
2675;BME280;1347;42.122;24.746;2023-02-04T04:47:55;99112.97;;;3.83;58.39
2675;BME280;1347;42.122;24.746;2023-02-04T04:50:22;99112.25;;;3.74;59.59
2675;BME280;1347;42.122;24.746;2023-02-04T04:52:49;99120.16;;;3.79;59.57
2675;BME280;1347;42.122;24.746;2023-02-04T04:55:16;99106.09;;;3.86;58.87
2675;BME280;1347;42.122;24.746;2023-02-04T04:57:43;99112.88;;;3.92;59.04
2675;BME280;1347;42.122;24.746;2023-02-04T05:00:15;99100.38;;;3.79;59.79
2675;BME280;1347;42.122;24.746;2023-02-04T05:02:43;99099.88;;;3.97;59.66
2675;BME280;1347;42.122;24.746;2023-02-04T05:05:10;99109.25;;;4.00;58.91
2675;BME280;1347;42.122;24.746;2023-02-04T05:07:37;99113.19;;;3.90;60.02
2675;BME280;1347;42.122;24.746;2023-02-04T05:10:05;99116.19;;;3.77;61.16
2675;BME280;1347;42.122;24.746;2023-02-04T05:12:32;99105.34;;;3.77;61.36
2675;BME280;1347;42.122;24.746;2023-02-04T05:14:59;99112.91;;;3.71;61.51
2675;BME280;1347;42.122;24.746;2023-02-04T05:17:27;99119.78;;;3.68;61.75
2675;BME280;1347;42.122;24.746;2023-02-04T05:19:54;99111.03;;;3.84;61.20
2675;BME280;1347;42.122;24.746;2023-02-04T05:22:21;99102.22;;;3.75;61.37
2675;BME280;1347;42.122;24.746;2023-02-04T05:24:48;99114.78;;;3.91;60.73
2675;BME280;1347;42.122;24.746;2023-02-04T05:27:15;99095.66;;;3.88;61.25
2675;BME280;1347;42.122;24.746;2023-02-04T05:29:41;99094.34;;;3.94;60.98
2675;BME280;1347;42.122;24.746;2023-02-04T05:32:08;99099.66;;;4.02;60.70
2675;BME280;1347;42.122;24.746;2023-02-04T05:34:36;99091.31;;;4.07;60.30
2675;BME280;1347;42.122;24.746;2023-02-04T05:37:03;99089.19;;;4.13;60.20
2675;BME280;1347;42.122;24.746;2023-02-04T05:39:30;99096.41;;;4.21;59.91
2675;BME280;1347;42.122;24.746;2023-02-04T05:41:57;99102.44;;;4.27;60.01
2675;BME280;1347;42.122;24.746;2023-02-04T05:44:24;99101.06;;;4.33;59.64
2675;BME280;1347;42.122;24.746;2023-02-04T05:46:53;99099.25;;;4.25;60.05
2675;BME280;1347;42.122;24.746;2023-02-04T05:49:20;99099.28;;;4.37;59.59
2675;BME280;1347;42.122;24.746;2023-02-04T05:51:49;99103.44;;;4.34;59.72
2675;BME280;1347;42.122;24.746;2023-02-04T05:54:16;99107.31;;;4.46;59.38
2675;BME280;1347;42.122;24.746;2023-02-04T05:56:45;99099.72;;;4.51;59.35
2675;BME280;1347;42.122;24.746;2023-02-04T05:59:12;99094.41;;;4.55;59.29
2675;BME280;1347;42.122;24.746;2023-02-04T06:01:39;99100.06;;;4.62;59.02
2675;BME280;1347;42.122;24.746;2023-02-04T06:04:06;99106.16;;;4.59;58.65
2675;BME280;1347;42.122;24.746;2023-02-04T06:06:32;99106.06;;;4.55;59.26
2675;BME280;1347;42.122;24.746;2023-02-04T06:09:01;99114.66;;;4.57;59.55
2675;BME280;1347;42.122;24.746;2023-02-04T06:11:28;99104.03;;;4.64;59.39
2675;BME280;1347;42.122;24.746;2023-02-04T06:13:55;99115.00;;;4.68;59.35
2675;BME280;1347;42.122;24.746;2023-02-04T06:16:22;99110.00;;;4.70;59.13
2675;BME280;1347;42.122;24.746;2023-02-04T06:18:49;99120.41;;;4.80;59.03
2675;BME280;1347;42.122;24.746;2023-02-04T06:21:16;99104.81;;;4.77;59.35
2675;BME280;1347;42.122;24.746;2023-02-04T06:23:43;99099.50;;;4.56;60.14
2675;BME280;1347;42.122;24.746;2023-02-04T06:26:11;99113.97;;;4.36;61.17
2675;BME280;1347;42.122;24.746;2023-02-04T06:28:38;99115.63;;;4.16;62.97
2675;BME280;1347;42.122;24.746;2023-02-04T06:31:05;99128.72;;;4.02;63.15
2675;BME280;1347;42.122;24.746;2023-02-04T06:33:33;99121.97;;;3.75;64.32
2675;BME280;1347;42.122;24.746;2023-02-04T06:36:00;99120.13;;;3.67;65.62
2675;BME280;1347;42.122;24.746;2023-02-04T06:38:27;99120.81;;;3.64;65.93
2675;BME280;1347;42.122;24.746;2023-02-04T06:40:54;99124.22;;;3.73;65.77
2675;BME280;1347;42.122;24.746;2023-02-04T06:43:22;99120.75;;;3.85;65.50
2675;BME280;1347;42.122;24.746;2023-02-04T06:45:50;99124.69;;;3.87;65.32
2675;BME280;1347;42.122;24.746;2023-02-04T06:48:16;99124.38;;;3.89;65.37
2675;BME280;1347;42.122;24.746;2023-02-04T06:50:43;99137.03;;;3.85;66.14
2675;BME280;1347;42.122;24.746;2023-02-04T06:53:10;99131.38;;;3.90;66.64
2675;BME280;1347;42.122;24.746;2023-02-04T06:55:37;99144.84;;;3.86;67.29
2675;BME280;1347;42.122;24.746;2023-02-04T06:58:04;99158.25;;;3.83;67.81
2675;BME280;1347;42.122;24.746;2023-02-04T07:00:33;99142.50;;;3.97;67.25
2675;BME280;1347;42.122;24.746;2023-02-04T07:02:59;99147.69;;;4.02;68.20
2675;BME280;1347;42.122;24.746;2023-02-04T07:05:26;99150.09;;;4.28;67.58
2675;BME280;1347;42.122;24.746;2023-02-04T07:07:53;99151.28;;;4.63;66.20
2675;BME280;1347;42.122;24.746;2023-02-04T07:10:20;99142.13;;;4.43;nan
2675;BME280;1347;42.122;24.746;2023-02-04T07:12:47;99152.16;;;4.31;67.14
2675;BME280;1347;42.122;24.746;2023-02-04T07:15:14;99163.50;;;4.45;66.76
2675;BME280;1347;42.122;24.746;2023-02-04T07:17:42;99159.09;;;4.53;66.21
2675;BME280;1347;42.122;24.746;2023-02-04T07:20:10;99157.28;;;4.69;65.51
2675;BME280;1347;42.122;24.746;2023-02-04T07:22:37;99159.66;;;4.82;64.96
2675;BME280;1347;42.122;24.746;2023-02-04T07:25:05;99158.97;;;5.10;64.29
2675;BME280;1347;42.122;24.746;2023-02-04T07:27:32;99164.16;;;5.27;62.50
2675;BME280;1347;42.122;24.746;2023-02-04T07:29:58;99163.22;;;5.47;61.64
2675;BME280;1347;42.122;24.746;2023-02-04T07:32:25;99159.22;;;5.85;60.61
2675;BME280;1347;42.122;24.746;2023-02-04T07:34:58;99165.38;;;6.10;59.61
2675;BME280;1347;42.122;24.746;2023-02-04T07:37:25;99163.06;;;6.12;59.57
2675;BME280;1347;42.122;24.746;2023-02-04T07:39:52;99155.28;;;6.10;59.97
2675;BME280;1347;42.122;24.746;2023-02-04T07:42:19;99157.13;;;6.22;60.73
2675;BME280;1347;42.122;24.746;2023-02-04T07:44:46;99161.81;;;6.53;60.01
2675;BME280;1347;42.122;24.746;2023-02-04T07:47:13;99153.03;;;6.91;59.65
2675;BME280;1347;42.122;24.746;2023-02-04T07:49:40;99139.34;;;7.07;59.52
2675;BME280;1347;42.122;24.746;2023-02-04T07:52:09;99130.97;;;7.69;59.03
2675;BME280;1347;42.122;24.746;2023-02-04T07:54:36;99125.91;;;8.78;56.15
2675;BME280;1347;42.122;24.746;2023-02-04T07:57:03;99108.78;;;10.05;53.52
2675;BME280;1347;42.122;24.746;2023-02-04T07:59:30;99101.66;;;11.54;50.32
2675;BME280;1347;42.122;24.746;2023-02-04T08:01:57;99101.81;;;13.38;45.89
2675;BME280;1347;42.122;24.746;2023-02-04T08:04:24;99093.13;;;15.20;41.93
2675;BME280;1347;42.122;24.746;2023-02-04T08:06:51;99085.69;;;16.88;38.77
2675;BME280;1347;42.122;24.746;2023-02-04T08:09:19;99095.34;;;19.16;36.34
2675;BME280;1347;42.122;24.746;2023-02-04T08:11:46;99092.31;;;19.84;34.40
2675;BME280;1347;42.122;24.746;2023-02-04T08:14:13;99087.19;;;20.21;33.84
2675;BME280;1347;42.122;24.746;2023-02-04T08:16:39;99090.28;;;19.98;34.27
2675;BME280;1347;42.122;24.746;2023-02-04T08:19:06;99067.63;;;19.00;34.17
2675;BME280;1347;42.122;24.746;2023-02-04T08:21:33;99077.31;;;20.45;33.14
2675;BME280;1347;42.122;24.746;2023-02-04T08:24:00;99074.44;;;21.30;31.94
2675;BME280;1347;42.122;24.746;2023-02-04T08:26:29;99077.44;;;23.36;30.22
2675;BME280;1347;42.122;24.746;2023-02-04T08:28:56;99066.72;;;22.89;29.99
2675;BME280;1347;42.122;24.746;2023-02-04T08:31:22;99071.44;;;22.21;30.18
2675;BME280;1347;42.122;24.746;2023-02-04T08:33:49;99069.22;;;23.60;29.17
2675;BME280;1347;42.122;24.746;2023-02-04T08:36:16;99064.69;;;25.95;27.69
2675;BME280;1347;42.122;24.746;2023-02-04T08:38:43;99047.69;;;26.19;26.70
2675;BME280;1347;42.122;24.746;2023-02-04T08:41:10;99040.38;;;26.97;25.77
2675;BME280;1347;42.122;24.746;2023-02-04T08:43:38;99053.72;;;25.97;25.61
2675;BME280;1347;42.122;24.746;2023-02-04T08:46:05;99049.13;;;26.44;25.76
2675;BME280;1347;42.122;24.746;2023-02-04T08:48:32;99031.53;;;28.39;24.18
2675;BME280;1347;42.122;24.746;2023-02-04T08:50:59;99035.28;;;26.11;25.09
2675;BME280;1347;42.122;24.746;2023-02-04T08:53:25;99033.03;;;26.45;24.99
2675;BME280;1347;42.122;24.746;2023-02-04T08:55:52;99052.63;;;26.24;25.35
2675;BME280;1347;42.122;24.746;2023-02-04T08:58:19;99037.16;;;25.02;25.68
2675;BME280;1347;42.122;24.746;2023-02-04T09:00:47;99042.25;;;24.32;25.75
2675;BME280;1347;42.122;24.746;2023-02-04T09:03:14;99055.50;;;24.23;25.52
2675;BME280;1347;42.122;24.746;2023-02-04T09:05:41;99054.38;;;25.10;25.42
2675;BME280;1347;42.122;24.746;2023-02-04T09:08:08;99062.88;;;24.44;25.55
2675;BME280;1347;42.122;24.746;2023-02-04T09:10:35;99055.25;;;23.51;25.91
2675;BME280;1347;42.122;24.746;2023-02-04T09:13:02;99062.50;;;24.18;25.31
2675;BME280;1347;42.122;24.746;2023-02-04T09:15:29;99037.19;;;22.30;26.97
2675;BME280;1347;42.122;24.746;2023-02-04T09:17:57;99055.50;;;22.31;27.33
2675;BME280;1347;42.122;24.746;2023-02-04T09:20:29;99045.41;;;22.92;27.38
2675;BME280;1347;42.122;24.746;2023-02-04T09:22:56;99044.69;;;21.80;27.92
2675;BME280;1347;42.122;24.746;2023-02-04T09:25:23;99029.31;;;19.91;29.69
2675;BME280;1347;42.122;24.746;2023-02-04T09:27:50;99034.19;;;18.58;31.20
2675;BME280;1347;42.122;24.746;2023-02-04T09:30:17;99031.59;;;17.43;32.39
2675;BME280;1347;42.122;24.746;2023-02-04T09:32:43;99015.00;;;15.53;34.20
2675;BME280;1347;42.122;24.746;2023-02-04T09:35:12;99015.91;;;14.30;35.59
2675;BME280;1347;42.122;24.746;2023-02-04T09:37:39;99023.75;;;13.80;37.42
2675;BME280;1347;42.122;24.746;2023-02-04T09:40:06;98995.03;;;13.74;37.28
2675;BME280;1347;42.122;24.746;2023-02-04T09:42:34;99002.63;;;13.56;37.60
2675;BME280;1347;42.122;24.746;2023-02-04T09:45:02;98993.34;;;13.25;37.88
2675;BME280;1347;42.122;24.746;2023-02-04T09:47:30;98995.03;;;12.80;38.78
2675;BME280;1347;42.122;24.746;2023-02-04T09:49:57;98980.91;;;12.64;39.10
2675;BME280;1347;42.122;24.746;2023-02-04T09:52:26;98985.28;;;12.43;39.78
2675;BME280;1347;42.122;24.746;2023-02-04T09:54:53;98985.72;;;12.21;40.45
2675;BME280;1347;42.122;24.746;2023-02-04T09:57:20;98977.78;;;11.73;41.00
2675;BME280;1347;42.122;24.746;2023-02-04T09:59:48;98984.13;;;11.88;41.34
2675;BME280;1347;42.122;24.746;2023-02-04T10:02:20;98984.91;;;12.13;41.43
2675;BME280;1347;42.122;24.746;2023-02-04T10:04:57;98986.06;;;12.01;41.09
2675;BME280;1347;42.122;24.746;2023-02-04T10:07:26;98989.63;;;12.20;40.96
2675;BME280;1347;42.122;24.746;2023-02-04T10:09:54;98987.66;;;12.20;41.08
2675;BME280;1347;42.122;24.746;2023-02-04T10:12:21;98985.28;;;12.33;41.22
2675;BME280;1347;42.122;24.746;2023-02-04T10:14:48;98971.97;;;11.99;41.22
2675;BME280;1347;42.122;24.746;2023-02-04T10:17:19;98966.00;;;11.58;42.15
2675;BME280;1347;42.122;24.746;2023-02-04T10:19:48;98972.25;;;11.52;42.97
2675;BME280;1347;42.122;24.746;2023-02-04T10:22:17;98967.25;;;12.03;42.02
2675;BME280;1347;42.122;24.746;2023-02-04T10:24:45;98965.16;;;12.89;40.69
2675;BME280;1347;42.122;24.746;2023-02-04T10:27:13;98969.50;;;13.67;38.88
2675;BME280;1347;42.122;24.746;2023-02-04T10:29:42;98949.13;;;13.57;39.40
2675;BME280;1347;42.122;24.746;2023-02-04T10:32:28;98967.19;;;13.61;39.44
2675;BME280;1347;42.122;24.746;2023-02-04T10:34:59;98956.72;;;13.39;40.12
2675;BME280;1347;42.122;24.746;2023-02-04T10:37:27;98958.53;;;13.63;39.10
2675;BME280;1347;42.122;24.746;2023-02-04T10:39:56;98955.81;;;13.56;39.13
2675;BME280;1347;42.122;24.746;2023-02-04T10:42:25;98943.44;;;13.12;40.45
2675;BME280;1347;42.122;24.746;2023-02-04T10:44:52;98934.41;;;13.15;39.76
2675;BME280;1347;42.122;24.746;2023-02-04T10:47:21;98931.22;;;13.24;40.18
2675;BME280;1347;42.122;24.746;2023-02-04T10:49:54;98935.53;;;13.29;40.26
2675;BME280;1347;42.122;24.746;2023-02-04T10:52:29;98908.88;;;13.11;40.06
2675;BME280;1347;42.122;24.746;2023-02-04T10:55:02;98923.03;;;13.06;40.34
2675;BME280;1347;42.122;24.746;2023-02-04T10:57:29;98916.34;;;13.07;40.55
2675;BME280;1347;42.122;24.746;2023-02-04T10:59:57;98922.31;;;12.88;40.63
2675;BME280;1347;42.122;24.746;2023-02-04T11:02:40;98902.38;;;12.63;41.57
2675;BME280;1347;42.122;24.746;2023-02-04T11:05:11;98909.44;;;12.71;41.52
2675;BME280;1347;42.122;24.746;2023-02-04T11:07:38;98908.66;;;12.67;41.82
2675;BME280;1347;42.122;24.746;2023-02-04T11:10:12;98914.94;;;12.64;41.37
2675;BME280;1347;42.122;24.746;2023-02-04T11:12:42;98904.00;;;12.49;42.29
2675;BME280;1347;42.122;24.746;2023-02-04T11:15:39;98900.06;;;12.50;41.86
2675;BME280;1347;42.122;24.746;2023-02-04T11:18:08;98903.22;;;12.49;42.04
2675;BME280;1347;42.122;24.746;2023-02-04T11:20:35;98875.69;;;12.56;42.30
2675;BME280;1347;42.122;24.746;2023-02-04T11:23:32;98900.84;;;12.51;42.15
2675;BME280;1347;42.122;24.746;2023-02-04T11:26:04;98896.47;;;12.64;42.56
2675;BME280;1347;42.122;24.746;2023-02-04T11:28:44;98897.22;;;12.79;42.36
2675;BME280;1347;42.122;24.746;2023-02-04T11:31:26;98896.03;;;12.80;42.31
2675;BME280;1347;42.122;24.746;2023-02-04T11:34:22;98885.34;;;13.00;41.81
2675;BME280;1347;42.122;24.746;2023-02-04T11:37:12;98891.22;;;12.98;42.57
2675;BME280;1347;42.122;24.746;2023-02-04T11:39:40;98883.31;;;13.07;41.89
2675;BME280;1347;42.122;24.746;2023-02-04T11:42:20;98880.47;;;13.32;41.42
2675;BME280;1347;42.122;24.746;2023-02-04T11:44:51;98870.25;;;13.29;41.56
2675;BME280;1347;42.122;24.746;2023-02-04T11:47:19;98865.16;;;13.27;41.57
2675;BME280;1347;42.122;24.746;2023-02-04T11:49:53;98865.06;;;13.38;41.64
2675;BME280;1347;42.122;24.746;2023-02-04T11:52:21;98867.06;;;13.34;41.85
2675;BME280;1347;42.122;24.746;2023-02-04T11:54:52;98864.75;;;13.29;41.79
2675;BME280;1347;42.122;24.746;2023-02-04T11:57:21;98872.50;;;12.72;43.09
2675;BME280;1347;42.122;24.746;2023-02-04T11:59:48;98869.06;;;12.32;43.88
2675;BME280;1347;42.122;24.746;2023-02-04T12:02:16;98865.25;;;11.76;44.85
2675;BME280;1347;42.122;24.746;2023-02-04T12:04:51;98850.72;;;11.55;45.33
2675;BME280;1347;42.122;24.746;2023-02-04T12:07:28;98864.78;;;11.25;46.69
2675;BME280;1347;42.122;24.746;2023-02-04T12:09:55;98859.72;;;11.27;47.24
2675;BME280;1347;42.122;24.746;2023-02-04T12:12:26;98848.31;;;11.21;47.56
2675;BME280;1347;42.122;24.746;2023-02-04T12:15:00;98877.69;;;11.06;48.32
2675;BME280;1347;42.122;24.746;2023-02-04T12:17:28;98856.56;;;11.14;49.14
2675;BME280;1347;42.122;24.746;2023-02-04T12:19:55;98863.59;;;11.15;49.68
2675;BME280;1347;42.122;24.746;2023-02-04T12:22:22;98858.88;;;11.05;49.61
2675;BME280;1347;42.122;24.746;2023-02-04T12:24:49;98873.00;;;11.21;49.93
2675;BME280;1347;42.122;24.746;2023-02-04T12:27:16;98864.00;;;11.06;50.53
2675;BME280;1347;42.122;24.746;2023-02-04T12:29:45;98863.59;;;11.12;50.75
2675;BME280;1347;42.122;24.746;2023-02-04T12:32:12;98860.41;;;10.88;51.47
2675;BME280;1347;42.122;24.746;2023-02-04T12:34:39;98855.59;;;10.60;52.57
2675;BME280;1347;42.122;24.746;2023-02-04T12:37:05;98881.06;;;10.61;52.35
2675;BME280;1347;42.122;24.746;2023-02-04T12:39:32;98881.78;;;10.51;52.46
2675;BME280;1347;42.122;24.746;2023-02-04T12:41:59;98889.16;;;10.36;52.91
2675;BME280;1347;42.122;24.746;2023-02-04T12:44:26;98888.78;;;10.41;52.87
2675;BME280;1347;42.122;24.746;2023-02-04T12:46:54;98884.88;;;10.42;52.66
2675;BME280;1347;42.122;24.746;2023-02-04T12:49:21;98884.59;;;10.61;52.65
2675;BME280;1347;42.122;24.746;2023-02-04T12:51:49;98885.03;;;10.74;51.99
2675;BME280;1347;42.122;24.746;2023-02-04T12:54:17;98889.66;;;10.59;52.22
2675;BME280;1347;42.122;24.746;2023-02-04T12:56:43;98877.94;;;10.69;51.67
2675;BME280;1347;42.122;24.746;2023-02-04T12:59:11;98889.66;;;10.59;51.46
2675;BME280;1347;42.122;24.746;2023-02-04T13:01:37;98873.56;;;10.47;51.40
2675;BME280;1347;42.122;24.746;2023-02-04T13:04:06;98872.28;;;10.30;52.08
2675;BME280;1347;42.122;24.746;2023-02-04T13:06:32;98883.91;;;10.13;52.02
2675;BME280;1347;42.122;24.746;2023-02-04T13:08:59;98897.72;;;10.27;52.36
2675;BME280;1347;42.122;24.746;2023-02-04T13:11:26;98893.25;;;10.09;52.10
2675;BME280;1347;42.122;24.746;2023-02-04T13:13:53;98876.53;;;10.21;51.89
2675;BME280;1347;42.122;24.746;2023-02-04T13:16:20;98908.94;;;10.12;52.22
2675;BME280;1347;42.122;24.746;2023-02-04T13:18:49;98881.41;;;9.90;52.64
2675;BME280;1347;42.122;24.746;2023-02-04T13:21:17;98909.88;;;9.82;53.45
2675;BME280;1347;42.122;24.746;2023-02-04T13:23:44;98906.22;;;9.68;53.95